createdAt,value
2019-03-22T00:01:18.329Z,24.40
2019-03-22T00:06:24.036Z,25.23
2019-03-22T00:11:48.027Z,29.00
2019-03-22T00:16:53.926Z,24.57
2019-03-22T00:21:59.565Z,27.67
2019-03-22T00:27:30.745Z,23.40
2019-03-22T00:32:36.564Z,24.23
2019-03-22T00:37:42.874Z,26.50
2019-03-22T00:42:48.578Z,23.40
2019-03-22T00:47:54.353Z,22.17
2019-03-22T00:52:59.954Z,28.10
2019-03-22T00:58:05.854Z,25.10
2019-03-22T01:03:11.800Z,23.53
2019-03-22T01:08:17.395Z,24.10
2019-03-22T01:13:23.392Z,24.07
2019-03-22T01:18:29.476Z,25.00
2019-03-22T01:23:34.997Z,25.10
2019-03-22T01:28:40.891Z,24.93
2019-03-22T01:33:46.536Z,25.03
2019-03-22T01:38:52.663Z,24.97
2019-03-22T01:43:58.711Z,24.77
2019-03-22T01:49:04.793Z,28.47
2019-03-22T01:54:10.647Z,25.63
2019-03-22T01:59:16.402Z,29.70
2019-03-22T02:04:22.166Z,23.83
2019-03-22T02:09:29.167Z,29.63
2019-03-22T02:14:35.859Z,24.57
2019-03-22T02:19:42.352Z,28.27
2019-03-22T02:24:48.217Z,25.07
2019-03-22T02:29:53.854Z,28.83
2019-03-22T02:34:59.734Z,23.03
2019-03-22T02:40:08.240Z,24.87
2019-03-22T02:45:16.105Z,23.50
2019-03-22T02:50:22.644Z,27.97
2019-03-22T02:55:28.680Z,24.00
2019-03-22T03:00:35.045Z,24.73
2019-03-22T03:05:41.204Z,23.23
2019-03-22T03:10:46.983Z,21.90
2019-03-22T03:15:52.339Z,21.67
2019-03-22T03:20:57.876Z,21.33
2019-03-22T03:26:03.697Z,19.27
2019-03-22T03:31:09.768Z,22.90
2019-03-22T03:36:15.665Z,20.03
2019-03-22T03:41:21.408Z,20.93
2019-03-22T03:46:27.208Z,22.57
2019-03-22T03:51:33.423Z,21.17
2019-03-22T03:56:38.985Z,22.33
2019-03-22T04:01:44.454Z,19.67
2019-03-22T04:06:50.234Z,22.17
2019-03-22T04:11:55.955Z,21.43
2019-03-22T04:17:01.419Z,25.13
2019-03-22T04:22:07.303Z,22.83
2019-03-22T04:27:13.037Z,23.40
2019-03-22T04:32:18.783Z,20.40
2019-03-22T04:37:24.673Z,18.80
2019-03-22T04:42:30.424Z,18.33
2019-03-22T04:47:36.959Z,19.90
2019-03-22T04:52:42.682Z,16.17
2019-03-22T04:57:49.262Z,17.60
2019-03-22T05:02:55.852Z,14.83
2019-03-22T05:08:02.244Z,13.67
2019-03-22T05:13:10.686Z,15.90
2019-03-22T05:18:16.902Z,14.50
2019-03-22T05:23:24.708Z,13.57
2019-03-22T05:28:31.860Z,10.60
2019-03-22T05:33:37.487Z,12.57
2019-03-22T05:38:42.738Z,10.13
2019-03-22T05:43:48.240Z,11.03
2019-03-22T05:48:54.092Z,10.70
2019-03-22T05:53:59.582Z,10.20
2019-03-22T05:59:05.221Z,8.93
2019-03-22T06:04:10.994Z,10.90
2019-03-22T06:09:16.802Z,8.03
2019-03-22T06:14:22.361Z,8.13
2019-03-22T06:19:27.626Z,7.33
2019-03-22T06:24:32.845Z,7.87
2019-03-22T06:29:39.144Z,8.07
2019-03-22T06:34:44.424Z,6.27
2019-03-22T06:39:49.377Z,7.33
2019-03-22T06:44:54.332Z,6.57
2019-03-22T06:49:59.540Z,7.07
2019-03-22T06:55:07.076Z,6.87
2019-03-22T07:00:14.059Z,5.90
2019-03-22T07:05:19.403Z,5.17
2019-03-22T07:10:24.776Z,5.43
2019-03-22T07:15:29.929Z,6.57
2019-03-22T07:20:35.307Z,4.27
2019-03-22T07:25:40.662Z,4.87
2019-03-22T07:30:46.526Z,4.27
2019-03-22T07:35:51.666Z,4.17
2019-03-22T07:40:56.756Z,3.57
2019-03-22T07:46:02.807Z,2.80
2019-03-22T07:51:08.376Z,2.73
2019-03-22T07:56:13.991Z,3.00
2019-03-22T08:01:18.981Z,2.40
2019-03-22T08:06:24.195Z,2.17
2019-03-22T08:11:29.918Z,2.33
2019-03-22T08:16:35.058Z,2.30
2019-03-22T08:21:40.272Z,2.50
2019-03-22T08:26:45.595Z,2.17
2019-03-22T08:31:51.278Z,2.70
2019-03-22T08:36:56.458Z,2.43
2019-03-22T08:42:01.328Z,3.73
2019-03-22T08:47:06.685Z,4.90
2019-03-22T08:52:11.693Z,3.10
2019-03-22T08:57:16.717Z,3.87
2019-03-22T09:02:22.146Z,3.10
2019-03-22T09:07:27.660Z,2.83
2019-03-22T09:12:32.767Z,3.03
2019-03-22T09:17:37.740Z,4.00
2019-03-22T09:22:43.527Z,3.00
2019-03-22T09:27:48.690Z,3.47
2019-03-22T09:32:53.822Z,3.80
2019-03-22T09:38:07.819Z,4.97
2019-03-22T09:43:05.604Z,5.10
2019-03-22T09:48:10.907Z,5.07
2019-03-22T09:53:16.551Z,5.53
2019-03-22T09:58:21.807Z,5.60
2019-03-22T10:03:26.917Z,5.33
2019-03-22T10:08:32.196Z,5.40
2019-03-22T10:13:37.326Z,5.80
2019-03-22T10:18:42.275Z,6.10
2019-03-22T10:23:47.567Z,5.37
2019-03-22T10:28:52.918Z,4.57
2019-03-22T10:33:58.324Z,4.10
2019-03-22T10:39:04.418Z,3.97
2019-03-22T10:44:09.598Z,5.50
2019-03-22T10:49:14.513Z,5.60
2019-03-22T10:54:20.230Z,3.90
2019-03-22T10:59:25.706Z,4.77
2019-03-22T11:04:30.717Z,5.40
2019-03-22T11:09:35.783Z,4.47
2019-03-22T11:14:41.294Z,4.40
2019-03-22T11:19:46.759Z,3.63
2019-03-22T11:24:52.203Z,3.57
2019-03-22T11:29:57.405Z,3.10
2019-03-22T11:35:03.486Z,2.87
2019-03-22T11:40:14.622Z,3.33
2019-03-22T11:45:21.598Z,5.90
2019-03-22T11:50:29.027Z,6.30
2019-03-22T11:55:34.958Z,5.73
2019-03-22T12:00:40.280Z,5.40
2019-03-22T12:05:45.331Z,5.00
2019-03-22T12:10:50.859Z,4.17
2019-03-22T12:15:56.087Z,3.57
2019-03-22T12:21:01.748Z,3.13
2019-03-22T12:26:07.333Z,3.30
2019-03-22T12:31:12.849Z,3.10
2019-03-22T12:36:18.632Z,3.03
2019-03-22T12:41:24.348Z,5.03
2019-03-22T12:46:29.987Z,4.57
2019-03-22T12:51:35.351Z,5.40
2019-03-22T12:56:40.458Z,7.13
2019-03-22T13:01:46.123Z,2.70
2019-03-22T13:06:53.179Z,2.47
2019-03-22T13:11:59.104Z,5.63
2019-03-22T13:17:04.891Z,4.10
2019-03-22T13:22:10.341Z,4.60
2019-03-22T13:27:15.698Z,3.03
2019-03-22T13:32:21.548Z,4.77
2019-03-22T13:37:26.905Z,6.43
2019-03-22T13:42:32.702Z,6.83
2019-03-22T13:47:38.731Z,7.17
2019-03-22T13:52:43.712Z,6.93
2019-03-22T13:57:48.897Z,10.70
2019-03-22T14:03:02.893Z,8.50
2019-03-22T14:08:01.371Z,7.40
2019-03-22T14:13:07.785Z,6.47
2019-03-22T14:18:13.776Z,4.83
2019-03-22T14:23:19.517Z,7.40
2019-03-22T14:28:24.766Z,7.10
2019-03-22T14:33:30.633Z,6.90
2019-03-22T14:38:36.043Z,6.63
2019-03-22T14:43:41.521Z,6.53
2019-03-22T14:48:46.447Z,5.80
2019-03-22T14:53:51.918Z,7.23
2019-03-22T14:58:57.514Z,5.27
2019-03-22T15:04:03.247Z,6.30
2019-03-22T15:09:09.331Z,6.73
2019-03-22T15:14:28.141Z,6.27
2019-03-22T15:19:35.244Z,6.83
2019-03-22T15:24:45.236Z,6.57
2019-03-22T15:29:55.336Z,10.63
2019-03-22T15:35:19.421Z,11.30
2019-03-22T15:40:25.003Z,10.67
2019-03-22T15:45:30.485Z,8.83
2019-03-22T15:50:36.270Z,10.73
2019-03-22T15:55:41.656Z,11.10
2019-03-22T16:00:47.013Z,11.30
2019-03-22T16:05:52.573Z,12.33
2019-03-22T16:10:58.303Z,11.70
2019-03-22T16:16:03.565Z,12.20
2019-03-22T16:21:09.584Z,12.67
2019-03-22T16:26:14.861Z,15.53
2019-03-22T16:31:20.646Z,19.17
2019-03-22T16:36:26.279Z,21.17
2019-03-22T16:41:32.147Z,15.90
2019-03-22T16:46:37.891Z,14.47
2019-03-22T16:51:43.436Z,14.17
2019-03-22T16:56:49.387Z,13.70
2019-03-22T17:01:55.024Z,14.40
2019-03-22T17:07:00.867Z,22.57
2019-03-22T17:12:06.228Z,18.50
2019-03-22T17:17:11.431Z,16.57
2019-03-22T17:22:17.284Z,17.60
2019-03-22T17:27:22.784Z,20.90
2019-03-22T17:32:29.476Z,27.03
2019-03-22T17:37:34.951Z,29.23
2019-03-22T17:42:40.705Z,49.37
2019-03-22T17:47:46.289Z,52.13
2019-03-22T17:52:52.265Z,29.13
2019-03-22T17:57:58.219Z,28.30
2019-03-22T18:03:03.434Z,54.33
2019-03-22T18:08:08.645Z,48.30
2019-03-22T18:13:14.963Z,45.10
2019-03-22T18:18:20.976Z,49.20
2019-03-22T18:23:35.397Z,37.67
2019-03-22T18:28:35.798Z,42.93
2019-03-22T18:33:42.155Z,50.57
2019-03-22T18:38:47.716Z,47.00
2019-03-22T18:43:53.219Z,46.60
2019-03-22T18:48:58.963Z,44.90
2019-03-22T18:54:05.062Z,50.07
2019-03-22T18:59:10.433Z,59.23
2019-03-22T19:04:16.080Z,77.40
2019-03-22T19:09:22.733Z,47.43
2019-03-22T19:14:29.321Z,51.83
2019-03-22T19:19:34.954Z,54.00
2019-03-22T19:24:41.754Z,44.13
2019-03-22T19:29:47.994Z,41.20
2019-03-22T19:34:54.646Z,56.33
2019-03-22T19:40:01.672Z,46.10
2019-03-22T19:45:27.581Z,50.27
2019-03-22T19:50:33.769Z,70.53
2019-03-22T19:55:39.442Z,75.63
2019-03-22T20:00:44.603Z,86.03
2019-03-22T20:05:50.716Z,86.97
2019-03-22T20:10:56.086Z,84.87
2019-03-22T20:16:02.081Z,81.37
2019-03-22T20:21:07.977Z,84.13
2019-03-22T20:26:13.748Z,72.97
2019-03-22T20:31:19.610Z,69.70
2019-03-22T20:36:24.975Z,59.00
2019-03-22T20:41:30.032Z,55.33
2019-03-22T20:46:35.356Z,72.77
2019-03-22T20:51:41.104Z,63.80
2019-03-22T20:56:46.432Z,79.77
2019-03-22T21:01:52.071Z,75.30
2019-03-22T21:06:57.518Z,104.97
2019-03-22T21:12:03.968Z,120.17
2019-03-22T21:17:10.572Z,96.03
2019-03-22T21:22:17.131Z,89.00
2019-03-22T21:27:23.738Z,95.23
2019-03-22T21:32:29.133Z,89.73
2019-03-22T21:37:34.428Z,90.33
2019-03-22T21:42:40.993Z,120.00
2019-03-22T21:47:46.580Z,93.83
2019-03-22T21:52:51.905Z,82.23
2019-03-22T21:57:57.615Z,84.50
2019-03-22T22:03:03.883Z,88.63
2019-03-22T22:08:09.415Z,85.17
2019-03-22T22:13:15.089Z,73.70
2019-03-22T22:18:22.043Z,68.90
2019-03-22T22:23:27.695Z,72.13
2019-03-22T22:28:45.565Z,82.67
2019-03-22T22:33:50.831Z,78.43
2019-03-22T22:38:57.539Z,57.77
2019-03-22T22:44:03.733Z,47.33
2019-03-22T22:49:09.164Z,47.17
2019-03-22T22:54:14.943Z,45.07
2019-03-22T22:59:20.093Z,57.80
2019-03-22T23:04:25.456Z,49.13
2019-03-22T23:09:32.318Z,50.13
2019-03-22T23:14:38.986Z,46.00
2019-03-22T23:19:44.470Z,51.00
2019-03-22T23:24:50.551Z,56.27
2019-03-22T23:29:56.099Z,55.57
2019-03-22T23:35:02.169Z,54.00
2019-03-22T23:40:08.174Z,59.10
2019-03-22T23:45:14.321Z,55.23
2019-03-22T23:50:19.765Z,66.60
2019-03-22T23:55:24.822Z,54.17
